Pine Plains, New York
Current Conditions -  °F | °C
As of 8:06 PM on Monday 22 Dec 2014 (Local Time) from KPOU Reporting Station
Overcast Overcast  
Wind Chill: 38°   Ceiling: 1900
Heat Index: 38°   Visibility: 9mi
Dew Point: 32°   Wind: 3mph
Humidity: 79%   Direction: 360°N
Pressure: 30.24"   Gusts: NA
Location:  41.98°N, 73.66°W
Report Text: KPOU 230106Z 36003KT 9SM BKN019 OVC029 03/00 A3024 RMK AO2 T00330000
Loading
Personal Weather Stations






























Interactive Weather Map New forecast layout! Learn more

10-Day Weather Forecast

Advertisements
Track Severe Weather on mobile